createdAt,value
2019-01-25T00:02:04.326Z,14.27
2019-01-25T00:04:33.558Z,15.50
2019-01-25T00:07:02.799Z,14.60
2019-01-25T00:09:32.318Z,13.13
2019-01-25T00:12:01.651Z,14.73
2019-01-25T00:14:30.880Z,14.47
2019-01-25T00:17:00.083Z,14.07
2019-01-25T00:19:29.331Z,14.10
2019-01-25T00:21:58.574Z,14.03
2019-01-25T00:24:27.795Z,14.17
2019-01-25T00:26:57.059Z,13.37
2019-01-25T00:29:26.322Z,14.27
2019-01-25T00:31:55.524Z,12.77
2019-01-25T00:34:24.770Z,14.10
2019-01-25T00:36:54.008Z,13.90
2019-01-25T00:39:23.564Z,13.80
2019-01-25T00:41:52.918Z,12.57
2019-01-25T00:44:22.131Z,13.70
2019-01-25T00:46:51.422Z,12.80
2019-01-25T00:49:21.299Z,13.40
2019-01-25T00:51:50.519Z,12.47
2019-01-25T00:54:19.779Z,13.37
2019-01-25T00:56:49.106Z,13.10
2019-01-25T00:59:18.798Z,13.67
2019-01-25T01:01:48.054Z,13.13
2019-01-25T01:04:17.323Z,13.23
2019-01-25T01:06:46.535Z,12.13
2019-01-25T01:09:15.759Z,13.07
2019-01-25T01:11:45.066Z,12.53
2019-01-25T01:14:14.272Z,13.67
2019-01-25T01:16:43.534Z,13.47
2019-01-25T01:19:12.778Z,13.30
2019-01-25T01:21:42.064Z,11.87
2019-01-25T01:24:11.292Z,13.20
2019-01-25T01:26:40.487Z,13.13
2019-01-25T01:29:09.799Z,12.27
2019-01-25T01:31:39.087Z,12.67
2019-01-25T01:34:08.270Z,12.43
2019-01-25T01:36:37.519Z,13.20
2019-01-25T01:39:07.763Z,11.70
2019-01-25T01:41:36.995Z,11.53
2019-01-25T01:44:06.239Z,11.30
2019-01-25T01:46:35.411Z,11.27
2019-01-25T01:49:04.625Z,11.37
2019-01-25T01:51:33.853Z,10.43
2019-01-25T01:54:03.058Z,11.03
2019-01-25T01:56:32.350Z,11.43
2019-01-25T01:59:01.575Z,10.67
2019-01-25T02:01:30.887Z,11.10
2019-01-25T02:04:00.417Z,10.90
2019-01-25T02:06:29.631Z,11.53
2019-01-25T02:08:58.819Z,10.43
2019-01-25T02:11:28.038Z,11.73
2019-01-25T02:13:57.263Z,10.57
2019-01-25T02:16:26.513Z,10.70
2019-01-25T02:18:55.724Z,10.73
2019-01-25T02:21:25.252Z,11.57
2019-01-25T02:23:54.919Z,11.63
2019-01-25T02:26:24.098Z,11.63
2019-01-25T02:28:53.340Z,10.90
2019-01-25T02:31:22.594Z,11.30
2019-01-25T02:33:51.807Z,11.60
2019-01-25T02:36:21.051Z,10.50
2019-01-25T02:38:50.274Z,12.33
2019-01-25T02:41:19.456Z,11.90
2019-01-25T02:43:48.707Z,10.60
2019-01-25T02:46:17.913Z,11.00
2019-01-25T02:48:47.177Z,10.20
2019-01-25T02:51:16.374Z,11.00
2019-01-25T02:53:45.566Z,10.80
2019-01-25T02:56:14.823Z,11.07
2019-01-25T02:58:44.075Z,10.57
2019-01-25T03:01:13.264Z,11.90
2019-01-25T03:03:42.631Z,12.03
2019-01-25T03:06:11.819Z,11.43
2019-01-25T03:08:41.052Z,11.67
2019-01-25T03:11:10.307Z,10.87
2019-01-25T03:13:39.495Z,10.67
2019-01-25T03:16:08.753Z,10.80
2019-01-25T03:18:37.949Z,10.57
2019-01-25T03:21:07.131Z,10.90
2019-01-25T03:23:36.388Z,11.77
2019-01-25T03:26:05.870Z,11.70
2019-01-25T03:28:35.123Z,11.47
2019-01-25T03:31:04.344Z,12.07
2019-01-25T03:33:33.552Z,11.67
2019-01-25T03:36:02.803Z,11.10
2019-01-25T03:38:32.011Z,10.93
2019-01-25T03:41:01.202Z,11.00
2019-01-25T03:43:30.453Z,10.63
2019-01-25T03:45:59.636Z,10.73
2019-01-25T03:48:28.872Z,10.50
2019-01-25T03:50:58.100Z,9.97
2019-01-25T03:53:27.311Z,10.67
2019-01-25T03:55:56.838Z,10.50
2019-01-25T03:58:26.107Z,11.10
2019-01-25T04:00:55.323Z,10.93
2019-01-25T04:03:24.541Z,10.43
2019-01-25T04:05:53.727Z,11.30
2019-01-25T04:08:22.934Z,11.33
2019-01-25T04:10:52.159Z,11.57
2019-01-25T04:13:21.377Z,10.57
2019-01-25T04:15:50.595Z,10.73
2019-01-25T04:18:19.838Z,11.03
2019-01-25T04:20:49.035Z,11.47
2019-01-25T04:23:18.258Z,11.00
2019-01-25T04:25:47.481Z,10.77
2019-01-25T04:28:16.666Z,10.87
2019-01-25T04:30:45.926Z,10.60
2019-01-25T04:33:15.103Z,10.27
2019-01-25T04:35:44.315Z,10.47
2019-01-25T04:38:13.543Z,10.17
2019-01-25T04:40:42.719Z,10.40
2019-01-25T04:43:11.988Z,10.73
2019-01-25T04:45:41.208Z,11.07
2019-01-25T04:48:14.326Z,10.13
2019-01-25T04:50:43.608Z,10.10
2019-01-25T04:53:12.804Z,10.40
2019-01-25T04:55:42.105Z,10.43
2019-01-25T04:58:18.840Z,10.67
2019-01-25T05:00:48.139Z,11.53
2019-01-25T05:03:17.841Z,11.60
2019-01-25T05:05:46.998Z,12.47
2019-01-25T05:08:17.898Z,11.67
2019-01-25T05:10:47.090Z,11.00
2019-01-25T05:13:16.301Z,11.73
2019-01-25T05:15:45.520Z,11.17
2019-01-25T05:18:15.024Z,10.40
2019-01-25T05:20:44.256Z,11.43
2019-01-25T05:23:13.528Z,10.43
2019-01-25T05:25:43.039Z,11.00
2019-01-25T05:28:19.515Z,10.10
2019-01-25T05:31:02.111Z,10.10
2019-01-25T05:33:32.823Z,11.80
2019-01-25T05:36:10.910Z,11.37
2019-01-25T05:38:40.118Z,11.37
2019-01-25T05:41:09.537Z,10.70
2019-01-25T05:43:40.907Z,10.90
2019-01-25T05:46:10.142Z,11.33
2019-01-25T05:48:39.316Z,10.60
2019-01-25T05:51:08.546Z,13.20
2019-01-25T05:53:37.726Z,13.47
2019-01-25T05:56:07.276Z,11.93
2019-01-25T05:58:36.544Z,11.57
2019-01-25T06:01:07.654Z,13.43
2019-01-25T06:03:37.028Z,11.70
2019-01-25T06:06:07.101Z,11.53
2019-01-25T06:08:43.604Z,11.43
2019-01-25T06:11:11.922Z,12.47
2019-01-25T06:13:45.197Z,12.83
2019-01-25T06:16:14.556Z,12.77
2019-01-25T06:18:43.678Z,12.43
2019-01-25T06:21:12.890Z,13.03
2019-01-25T06:23:42.094Z,13.20
2019-01-25T06:26:12.504Z,11.87
2019-01-25T06:28:41.697Z,12.30
2019-01-25T06:31:10.929Z,12.90
2019-01-25T06:33:40.101Z,15.70
2019-01-25T06:36:09.301Z,14.70
2019-01-25T06:38:38.506Z,14.80
2019-01-25T06:41:08.429Z,16.33
2019-01-25T06:43:37.650Z,16.60
2019-01-25T06:46:07.045Z,15.37
2019-01-25T06:48:36.242Z,14.23
2019-01-25T06:51:06.231Z,16.07
2019-01-25T06:53:35.446Z,20.13
2019-01-25T06:56:04.670Z,20.13
2019-01-25T06:58:55.824Z,19.90
2019-01-25T07:01:36.369Z,20.83
2019-01-25T07:04:05.577Z,23.17
2019-01-25T07:06:34.722Z,23.30
2019-01-25T07:09:06.401Z,24.50
2019-01-25T07:11:41.900Z,22.70
2019-01-25T07:14:06.486Z,24.93
2019-01-25T07:16:35.661Z,23.93
2019-01-25T07:19:04.801Z,24.67
2019-01-25T07:21:33.940Z,25.77
2019-01-25T07:24:03.120Z,23.93
2019-01-25T07:26:32.416Z,26.27
2019-01-25T07:29:01.726Z,23.10
2019-01-25T07:31:30.920Z,23.13
2019-01-25T07:34:00.152Z,23.77
2019-01-25T07:36:29.303Z,22.30
2019-01-25T07:38:58.502Z,23.33
2019-01-25T07:41:27.745Z,22.50
2019-01-25T07:43:56.942Z,21.07
2019-01-25T07:46:26.121Z,23.07
2019-01-25T07:48:55.309Z,21.77
2019-01-25T07:51:24.610Z,22.50
2019-01-25T07:53:53.856Z,23.23
2019-01-25T07:56:23.096Z,22.73
2019-01-25T07:58:52.332Z,20.87
2019-01-25T08:01:21.664Z,23.13
2019-01-25T08:03:50.830Z,22.40
2019-01-25T08:06:20.065Z,19.70
2019-01-25T08:08:49.290Z,20.93
2019-01-25T08:11:18.467Z,20.27
2019-01-25T08:13:47.705Z,18.00
2019-01-25T08:16:17.023Z,18.57
2019-01-25T08:18:46.498Z,17.53
2019-01-25T08:21:15.706Z,19.30
2019-01-25T08:23:44.944Z,19.47
2019-01-25T08:26:15.586Z,20.90
2019-01-25T08:28:44.961Z,20.47
2019-01-25T08:31:14.192Z,20.90
2019-01-25T08:33:43.402Z,22.17
2019-01-25T08:36:12.555Z,20.10
2019-01-25T08:38:41.750Z,22.73
2019-01-25T08:41:10.966Z,21.33
2019-01-25T08:43:40.146Z,20.23
2019-01-25T08:46:09.390Z,20.70
2019-01-25T08:48:38.628Z,20.27
2019-01-25T08:51:07.842Z,20.10
2019-01-25T08:53:37.063Z,18.97
2019-01-25T08:56:06.950Z,17.90
2019-01-25T08:58:36.502Z,17.37
2019-01-25T09:01:06.094Z,18.70
2019-01-25T09:03:35.295Z,17.90
2019-01-25T09:06:04.533Z,18.43
2019-01-25T09:08:33.716Z,18.63
2019-01-25T09:11:02.871Z,18.20
2019-01-25T09:13:32.128Z,20.40
2019-01-25T09:16:01.315Z,18.00
2019-01-25T09:18:30.486Z,19.17
2019-01-25T09:20:59.750Z,19.93
2019-01-25T09:23:28.914Z,18.20
2019-01-25T09:26:01.005Z,19.27
2019-01-25T09:28:28.987Z,17.07
2019-01-25T09:30:58.167Z,17.97
2019-01-25T09:33:27.286Z,16.17
2019-01-25T09:35:56.467Z,18.03
2019-01-25T09:38:25.673Z,16.07
2019-01-25T09:40:54.881Z,13.23
2019-01-25T09:43:24.414Z,15.47
2019-01-25T09:45:53.658Z,14.70
2019-01-25T09:48:22.882Z,13.67
2019-01-25T09:50:52.817Z,15.17
2019-01-25T09:53:22.442Z,13.00
2019-01-25T09:55:51.635Z,14.73
2019-01-25T09:58:21.181Z,14.03
2019-01-25T10:00:57.250Z,14.30
2019-01-25T10:03:26.494Z,14.20
2019-01-25T10:05:55.750Z,14.60
2019-01-25T10:08:25.025Z,16.17
2019-01-25T10:10:54.200Z,15.43
2019-01-25T10:13:23.417Z,15.37
2019-01-25T10:15:52.599Z,14.63
2019-01-25T10:18:24.877Z,14.97
2019-01-25T10:20:52.924Z,16.97
2019-01-25T10:23:22.136Z,16.77
2019-01-25T10:25:51.326Z,15.43
2019-01-25T10:28:20.513Z,15.37
2019-01-25T10:30:50.818Z,16.30
2019-01-25T10:33:20.030Z,15.70
2019-01-25T10:35:49.294Z,18.30
2019-01-25T10:38:18.503Z,15.77
2019-01-25T10:40:47.707Z,16.83
2019-01-25T10:43:16.895Z,15.67
2019-01-25T10:45:46.059Z,17.27
2019-01-25T10:48:15.257Z,16.50
2019-01-25T10:50:44.462Z,15.77
2019-01-25T10:53:13.655Z,16.90
2019-01-25T10:55:42.859Z,17.23
2019-01-25T10:58:11.992Z,18.40
2019-01-25T11:00:41.245Z,16.00
2019-01-25T11:03:10.455Z,15.97
2019-01-25T11:05:39.722Z,13.97
2019-01-25T11:08:08.896Z,13.00
2019-01-25T11:10:38.062Z,13.90
2019-01-25T11:13:07.284Z,10.53
2019-01-25T11:15:36.457Z,11.07
2019-01-25T11:18:05.878Z,11.37
2019-01-25T11:20:35.126Z,11.13
2019-01-25T11:23:04.316Z,12.70
2019-01-25T11:25:35.912Z,13.30
2019-01-25T11:28:05.288Z,14.07
2019-01-25T11:30:34.494Z,13.33
2019-01-25T11:33:03.666Z,14.23
2019-01-25T11:35:32.853Z,15.03
2019-01-25T11:38:02.057Z,15.03
2019-01-25T11:40:34.027Z,11.83
2019-01-25T11:43:08.404Z,10.10
2019-01-25T11:45:34.114Z,13.67
2019-01-25T11:48:03.291Z,13.43
2019-01-25T11:50:33.930Z,15.13
2019-01-25T11:53:03.126Z,14.77
2019-01-25T11:55:32.342Z,14.17
2019-01-25T11:58:01.795Z,14.57
2019-01-25T12:00:31.410Z,13.60
2019-01-25T12:03:00.605Z,14.73
2019-01-25T12:05:29.759Z,14.93
2019-01-25T12:07:59.015Z,13.70
2019-01-25T12:10:29.558Z,13.90
2019-01-25T12:12:58.745Z,15.30
2019-01-25T12:15:27.875Z,14.30
2019-01-25T12:17:57.441Z,14.57
2019-01-25T12:20:28.557Z,13.97
2019-01-25T12:22:57.680Z,14.50
2019-01-25T12:25:26.889Z,13.43
2019-01-25T12:27:56.072Z,14.00
2019-01-25T12:30:37.625Z,13.60
2019-01-25T12:33:04.919Z,14.20
2019-01-25T12:35:36.596Z,14.27
2019-01-25T12:38:05.876Z,13.67
2019-01-25T12:40:35.440Z,14.60
2019-01-25T12:43:04.697Z,14.00
2019-01-25T12:45:33.924Z,14.23
2019-01-25T12:48:03.082Z,13.23
2019-01-25T12:50:49.149Z,13.37
2019-01-25T12:53:18.766Z,13.63
2019-01-25T12:55:48.346Z,13.00
2019-01-25T12:58:17.537Z,14.33
2019-01-25T13:00:46.730Z,13.33
2019-01-25T13:03:15.986Z,12.63
2019-01-25T13:05:45.126Z,12.67
2019-01-25T13:08:14.338Z,13.77
2019-01-25T13:10:43.599Z,14.20
2019-01-25T13:13:12.746Z,14.07
2019-01-25T13:15:42.001Z,13.80
2019-01-25T13:18:11.187Z,13.53
2019-01-25T13:20:40.354Z,14.37
2019-01-25T13:23:09.693Z,15.23
2019-01-25T13:25:38.865Z,13.93
2019-01-25T13:28:08.073Z,13.63
2019-01-25T13:30:37.306Z,14.43
2019-01-25T13:33:06.488Z,14.30
2019-01-25T13:35:35.753Z,13.67
2019-01-25T13:38:04.981Z,14.73
2019-01-25T13:40:34.164Z,13.27
2019-01-25T13:43:03.408Z,14.33
2019-01-25T13:45:32.577Z,14.10
2019-01-25T13:48:01.736Z,14.10
2019-01-25T13:50:30.985Z,13.60
2019-01-25T13:53:00.191Z,13.97
2019-01-25T13:55:29.391Z,14.10
2019-01-25T13:57:58.674Z,14.40
2019-01-25T14:00:29.946Z,15.07
2019-01-25T14:02:59.172Z,13.77
2019-01-25T14:05:28.366Z,14.50
2019-01-25T14:07:57.587Z,13.97
2019-01-25T14:10:28.784Z,14.30
2019-01-25T14:12:57.954Z,14.33
2019-01-25T14:15:27.581Z,14.67
2019-01-25T14:17:56.794Z,13.67
2019-01-25T14:20:27.735Z,13.97
2019-01-25T14:22:56.965Z,13.93
2019-01-25T14:25:26.133Z,14.00
2019-01-25T14:27:55.325Z,13.57
2019-01-25T14:30:27.173Z,14.17
2019-01-25T14:32:56.371Z,13.47
2019-01-25T14:35:25.886Z,12.63
2019-01-25T14:37:55.125Z,13.93
2019-01-25T14:40:24.364Z,15.77
2019-01-25T14:42:53.924Z,15.53
2019-01-25T14:45:23.150Z,16.50
2019-01-25T14:47:52.399Z,16.23
2019-01-25T14:50:22.658Z,15.57
2019-01-25T14:52:51.842Z,15.70
2019-01-25T14:55:21.005Z,15.60
2019-01-25T14:57:50.224Z,15.33
2019-01-25T15:00:19.355Z,15.27
2019-01-25T15:02:48.618Z,15.33
2019-01-25T15:05:18.674Z,15.30
2019-01-25T15:07:47.850Z,15.67
2019-01-25T15:10:22.212Z,14.73
2019-01-25T15:12:52.024Z,15.43
2019-01-25T15:15:21.236Z,15.53
2019-01-25T15:17:50.530Z,15.00
2019-01-25T15:20:21.554Z,14.90
2019-01-25T15:22:50.845Z,14.93
2019-01-25T15:25:20.050Z,15.00
2019-01-25T15:27:49.282Z,15.23
2019-01-25T15:30:20.642Z,13.70
2019-01-25T15:32:49.816Z,13.57
2019-01-25T15:35:20.169Z,11.00
2019-01-25T15:37:49.394Z,10.00
2019-01-25T15:40:18.947Z,11.50
2019-01-25T15:42:48.148Z,11.10
2019-01-25T15:45:17.726Z,11.53
2019-01-25T15:47:47.025Z,9.73
2019-01-25T15:50:21.124Z,11.77
2019-01-25T15:52:50.291Z,12.40
2019-01-25T15:55:19.804Z,12.40
2019-01-25T15:57:49.026Z,14.10
2019-01-25T16:00:20.211Z,13.43
2019-01-25T16:02:49.435Z,12.67
2019-01-25T16:05:19.858Z,13.77
2019-01-25T16:07:49.910Z,13.23
2019-01-25T16:10:20.507Z,13.43
2019-01-25T16:12:49.753Z,12.80
2019-01-25T16:15:24.224Z,13.43
2019-01-25T16:17:53.497Z,12.70
2019-01-25T16:20:22.649Z,12.20
2019-01-25T16:22:51.919Z,12.70
2019-01-25T16:25:23.962Z,12.73
2019-01-25T16:27:53.153Z,12.60
2019-01-25T16:30:27.409Z,11.80
2019-01-25T16:32:56.601Z,11.90
2019-01-25T16:35:25.869Z,11.43
2019-01-25T16:37:55.128Z,12.10
2019-01-25T16:40:24.978Z,11.03
2019-01-25T16:42:54.579Z,11.70
2019-01-25T16:45:29.199Z,11.40
2019-01-25T16:47:58.442Z,10.77
2019-01-25T16:50:27.625Z,11.00
2019-01-25T16:52:56.773Z,11.37
2019-01-25T16:55:25.942Z,9.93
2019-01-25T16:57:55.137Z,9.70
2019-01-25T17:00:26.953Z,8.63
2019-01-25T17:02:56.201Z,8.70
2019-01-25T17:05:25.433Z,10.53
2019-01-25T17:07:54.650Z,8.93
2019-01-25T17:10:23.905Z,8.60
2019-01-25T17:12:53.118Z,9.07
2019-01-25T17:15:22.268Z,9.77
2019-01-25T17:17:51.486Z,8.50
2019-01-25T17:20:21.653Z,8.73
2019-01-25T17:22:51.090Z,9.53
2019-01-25T17:25:20.575Z,8.63
2019-01-25T17:27:49.742Z,8.93
2019-01-25T17:30:26.784Z,9.20
2019-01-25T17:32:56.871Z,8.17
2019-01-25T17:35:26.163Z,9.13
2019-01-25T17:37:55.365Z,8.97
2019-01-25T17:40:27.283Z,9.10
2019-01-25T17:42:56.857Z,9.13
2019-01-25T17:45:26.082Z,8.90
2019-01-25T17:47:55.322Z,8.77
2019-01-25T17:50:24.640Z,9.53
2019-01-25T17:52:53.890Z,9.03
2019-01-25T17:55:23.025Z,8.47
2019-01-25T17:57:52.245Z,8.50
2019-01-25T18:00:37.086Z,8.97
2019-01-25T18:03:06.304Z,9.27
2019-01-25T18:05:35.540Z,8.97
2019-01-25T18:08:04.816Z,9.30
2019-01-25T18:10:34.034Z,9.23
2019-01-25T18:13:03.298Z,8.97
2019-01-25T18:15:32.570Z,9.07
2019-01-25T18:18:01.773Z,9.40
2019-01-25T18:20:30.946Z,8.30
2019-01-25T18:23:00.190Z,9.03
2019-01-25T18:25:42.073Z,8.90
2019-01-25T18:28:14.089Z,9.40
2019-01-25T18:30:49.629Z,8.40
2019-01-25T18:33:18.817Z,8.60
2019-01-25T18:35:47.976Z,8.90
2019-01-25T18:38:17.456Z,9.37
2019-01-25T18:40:46.646Z,8.97
2019-01-25T18:43:15.831Z,8.50
2019-01-25T18:45:46.054Z,8.63
2019-01-25T18:48:15.249Z,9.03
2019-01-25T18:50:44.440Z,10.43
2019-01-25T18:53:14.067Z,11.13
2019-01-25T18:55:43.289Z,10.73
2019-01-25T18:58:12.505Z,10.60
2019-01-25T19:00:41.685Z,9.97
2019-01-25T19:03:10.849Z,9.20
2019-01-25T19:05:40.078Z,8.27
2019-01-25T19:08:10.868Z,9.07
2019-01-25T19:10:40.910Z,8.90
2019-01-25T19:13:10.074Z,10.10
2019-01-25T19:15:39.438Z,8.00
2019-01-25T19:18:11.120Z,9.20
2019-01-25T19:20:40.463Z,9.13
2019-01-25T19:23:10.050Z,8.97
2019-01-25T19:25:39.282Z,8.90
2019-01-25T19:28:08.382Z,8.93
2019-01-25T19:30:39.650Z,9.70
2019-01-25T19:33:08.873Z,9.17
2019-01-25T19:35:38.165Z,9.03
2019-01-25T19:38:08.550Z,8.93
2019-01-25T19:40:37.764Z,9.43
2019-01-25T19:43:07.014Z,9.57
2019-01-25T19:45:36.365Z,9.83
2019-01-25T19:48:05.657Z,9.53
2019-01-25T19:50:34.889Z,10.17
2019-01-25T19:53:04.067Z,8.83
2019-01-25T19:55:33.328Z,9.57
2019-01-25T19:58:02.847Z,9.40
2019-01-25T20:00:34.895Z,9.80
2019-01-25T20:03:04.357Z,11.60
2019-01-25T20:05:33.573Z,10.47
2019-01-25T20:08:02.732Z,12.30
2019-01-25T20:10:32.830Z,11.03
2019-01-25T20:13:02.093Z,11.73
2019-01-25T20:15:31.655Z,11.20
2019-01-25T20:18:00.862Z,11.03
2019-01-25T20:20:31.855Z,10.10
2019-01-25T20:23:01.537Z,11.37
2019-01-25T20:25:30.768Z,11.17
2019-01-25T20:27:59.990Z,11.20
2019-01-25T20:30:31.450Z,11.03
2019-01-25T20:33:01.861Z,12.27
2019-01-25T20:35:33.206Z,10.87
2019-01-25T20:38:02.464Z,12.07
2019-01-25T20:40:31.679Z,10.07
2019-01-25T20:43:01.052Z,10.73
2019-01-25T20:45:33.815Z,11.97
2019-01-25T20:48:03.054Z,12.33
2019-01-25T20:50:33.265Z,12.60
2019-01-25T20:53:02.506Z,12.03
2019-01-25T20:55:32.141Z,12.93
2019-01-25T20:58:02.471Z,12.83
2019-01-25T21:00:33.669Z,12.20
2019-01-25T21:03:04.207Z,11.53
2019-01-25T21:05:33.425Z,11.00
2019-01-25T21:08:02.629Z,12.50
2019-01-25T21:10:31.849Z,12.20
2019-01-25T21:13:01.086Z,12.67
2019-01-25T21:15:35.105Z,11.97
2019-01-25T21:18:01.146Z,13.33
2019-01-25T21:20:32.829Z,11.07
2019-01-25T21:23:02.153Z,11.57
2019-01-25T21:25:31.382Z,9.73
2019-01-25T21:28:00.528Z,10.57
2019-01-25T21:30:31.225Z,10.63
2019-01-25T21:33:00.855Z,11.50
2019-01-25T21:35:30.073Z,10.70
2019-01-25T21:37:59.329Z,11.07
2019-01-25T21:40:29.964Z,9.90
2019-01-25T21:42:59.496Z,10.30
2019-01-25T21:45:30.490Z,11.07
2019-01-25T21:47:59.819Z,10.33
2019-01-25T21:50:31.621Z,11.87
2019-01-25T21:53:00.812Z,11.00
2019-01-25T21:55:30.045Z,10.80
2019-01-25T21:58:05.496Z,11.53
2019-01-25T22:00:31.419Z,10.70
2019-01-25T22:03:00.650Z,11.40
2019-01-25T22:05:29.857Z,11.57
2019-01-25T22:07:59.087Z,12.07
2019-01-25T22:10:30.898Z,11.20
2019-01-25T22:13:00.092Z,10.97
2019-01-25T22:15:29.366Z,10.57
2019-01-25T22:17:58.603Z,10.77
2019-01-25T22:20:28.827Z,10.83
2019-01-25T22:22:58.451Z,12.10
2019-01-25T22:25:28.095Z,11.70
2019-01-25T22:27:58.580Z,10.53
2019-01-25T22:30:28.369Z,11.70
2019-01-25T22:32:57.614Z,12.27
2019-01-25T22:35:27.370Z,11.97
2019-01-25T22:37:56.618Z,12.30
2019-01-25T22:40:27.829Z,12.50
2019-01-25T22:42:57.153Z,11.27
2019-01-25T22:45:29.730Z,11.10
2019-01-25T22:48:01.323Z,11.40
2019-01-25T22:50:32.688Z,11.40
2019-01-25T22:53:02.165Z,11.53
2019-01-25T22:55:31.354Z,9.77
2019-01-25T22:58:00.546Z,10.53
2019-01-25T23:00:54.850Z,9.67
2019-01-25T23:03:33.702Z,10.17
2019-01-25T23:06:44.641Z,10.63
2019-01-25T23:09:37.554Z,9.80
2019-01-25T23:12:06.753Z,9.43
2019-01-25T23:14:36.394Z,9.43
2019-01-25T23:17:05.557Z,9.53
2019-01-25T23:19:34.697Z,9.57
2019-01-25T23:22:07.171Z,10.03
2019-01-25T23:24:36.617Z,9.13
2019-01-25T23:27:08.032Z,9.80
2019-01-25T23:29:38.878Z,11.27
2019-01-25T23:32:08.783Z,9.37
2019-01-25T23:34:41.385Z,9.63
2019-01-25T23:37:10.906Z,10.03
2019-01-25T23:39:42.337Z,9.83
2019-01-25T23:42:12.527Z,9.67
2019-01-25T23:44:41.746Z,9.90
2019-01-25T23:47:11.413Z,9.50
2019-01-25T23:49:40.656Z,10.30
2019-01-25T23:52:10.219Z,10.57
2019-01-25T23:54:41.541Z,9.87
2019-01-25T23:57:11.398Z,10.77
2019-01-25T23:59:41.069Z,9.87
